Flight Track Log - Related Links

Times and Time Zones

All times are in EDT time to prevent confusion due to time zone crossing. See the AXM6189 flight status page for this flight to view local times or setup timezone preferences in your user account.

Time Position Orientation Groundspeed Altitude Reporting Facility
EDT Latitude Longitude Course Direction KTS MPH feet Rate Location/Type
10:19AM 4.2340 113.8430 233° Southwest 264 304 8,900  Level FlightAware
10:20AM 4.2130 113.8220 225° Southwest 276 318 9,900 2,379 Climbing FlightAware
10:20AM 4.1840 113.7950 223° Southwest 298 343 11,200 2,850 Climbing FlightAware
10:21AM 4.1310 113.7520 219° Southwest 307 353 13,700 1,899 Climbing FlightAware
10:21AM 4.0950 113.7250 217° Southwest 307 353 13,700 2,677 Level FlightAware
10:22AM 4.0520 113.6940 216° Southwest 322 371 16,600 2,962 Climbing FlightAware
10:23AM 3.9900 113.6580 210° Southwest 329 379 17,600 2,047 Climbing FlightAware
10:23AM 3.9420 113.6240 215° Southwest 352 405 19,500 2,522 Climbing FlightAware
10:24AM 3.8890 113.5890 213° Southwest 370 426 20,500 1,371 Climbing FlightAware
10:25AM 3.8370 113.5570 212° Southwest 396 456 21,100 1,543 Climbing FlightAware
10:25AM 3.7800 113.5210 212° Southwest 403 464 22,300 1,326 Climbing FlightAware
10:26AM 3.7200 113.4680 221° Southwest 406 467 23,000 1,835 Climbing FlightAware
10:27AM 3.6620 113.4140 223° Southwest 417 480 24,900 2,435 Climbing FlightAware
10:27AM 3.6190 113.3690 226° Southwest 421 484 25,800 1,437 Climbing FlightAware
10:28AM 3.5730 113.3070 233° Southwest 435 501 26,600 815 Climbing FlightAware
10:28AM 3.5250 113.2430 233° Southwest 440 506 26,900 1,253 Climbing FlightAware
10:29AM 3.4620 113.1570 234° Southwest 454 522 28,500 1,250 Climbing FlightAware
10:30AM 3.4020 113.0750 234° Southwest 459 528 28,900 276 Climbing FlightAware
10:31AM 3.3610 113.0220 232° Southwest 459 528 28,900  Level FlightAware
10:31AM 3.3240 112.9730 233° Southwest 459 528 28,900  Level FlightAware
10:32AM 3.2840 112.9190 233° Southwest 459 528 28,900  Level FlightAware
10:32AM 3.2450 112.8670 233° Southwest 459 528 28,900  Level FlightAware
10:33AM 3.2080 112.8180 233° Southwest 459 528 28,900 -760 Level FlightAware
10:36AM 2.9934 112.5095 235° Southwest  Level Estimated
10:37AM 2.9064 112.3844 235° Southwest  Level Estimated
10:38AM 2.8194 112.2594 235° Southwest  Level Estimated
10:39AM 2.7323 112.1344 235° Southwest  Level Estimated
10:40AM 2.6453 112.0094 235° Southwest  Level Estimated
10:41AM 2.5582 111.8844 235° Southwest  Level Estimated
10:42AM 2.4711 111.7595 235° Southwest  Level Estimated
10:43AM 2.3840 111.6345 235° Southwest  Level Estimated
10:44AM 2.2969 111.5096 235° Southwest  Level Estimated
10:45AM 2.2098 111.3847 235° Southwest  Level Estimated
10:46AM 2.1226 111.2598 235° Southwest  Level Estimated
10:47AM 2.0355 111.1349 235° Southwest  Level Estimated
10:47AM 2.0720 111.2760 235° Southwest 411 473 17,700  Level FlightAware
10:48AM 2.0230 111.2070 235° Southwest 404 465 16,800 -2,188 Descending FlightAware
10:49AM 1.9850 111.1510 236° Southwest 385 443 14,600 -2,156 Descending FlightAware
10:49AM 1.9600 111.1160 234° Southwest 385 443 14,500 -94 Descending FlightAware
10:50AM 1.9290 111.0720 235° Southwest 385 443 14,500  Level FlightAware
10:50AM 1.8880 111.0130 235° Southwest 385 443 14,500 -2,581 Level FlightAware
10:51AM 1.8440 110.9430 238° Southwest 329 379 10,800 -3,506 Descending FlightAware
10:52AM 1.8130 110.8960 237° Southwest 323 372 10,000 -1,300 Descending FlightAware
10:52AM 1.7940 110.8690 235° Southwest 320 368 9,500 -1,317 Descending FlightAware
10:52AM 1.7780 110.8440 237° Southwest 318 366 9,100 -1,350 Descending FlightAware
10:53AM 1.7610 110.8190 236° Southwest 313 360 8,600 -1,317 Descending FlightAware
10:53AM 1.7450 110.7960 235° Southwest 313 360 8,200 -1,421 Descending FlightAware
10:53AM 1.7310 110.7740 238° Southwest 312 359 7,700 -1,655 Descending FlightAware
10:54AM 1.7210 110.7590 236° Southwest 310 357 7,400 -1,765 Descending FlightAware
10:54AM 1.7030 110.7330 235° Southwest 304 350 6,700 -1,895 Descending FlightAware
10:54AM 1.6920 110.7160 237° Southwest 304 350 6,200 -1,263 Descending FlightAware
10:55AM 1.6610 110.6700 236° Southwest 274 315 5,500 -906 Descending FlightAware
10:55AM 1.6520 110.6570 235° Southwest 264 304 5,400 -1,161 Descending FlightAware
10:55AM 1.6390 110.6380 236° Southwest 256 295 4,900 -1,350 Descending FlightAware
10:56AM 1.6270 110.6180 239° Southwest 256 295 4,500 -1,467 Descending FlightAware
10:56AM 1.6090 110.5950 232° Southwest 258 297 3,800 -1,674 Descending FlightAware
10:57AM 1.5930 110.5770 228° Southwest 258 297 3,300 -1,256 Descending FlightAware
10:57AM 1.5740 110.5570 226° Southwest 254 292 2,900 -1,024 Descending FlightAware
10:57AM 1.5640 110.5400 240° Southwest 245 282 2,600 -732 Descending FlightAware
10:58AM 1.5520 110.5160 243° Southwest 231 266 2,400 -439 Descending FlightAware
10:58AM 1.5450 110.4990 248° West 217 250 2,300 -167 Descending FlightAware
10:58AM 1.5390 110.4840 248° West 197 227 2,300 -333 Level FlightAware
10:58AM 1.5330 110.4690 248° West 187 215 2,100 -857 Descending FlightAware
10:59AM 1.5260 110.4500 250° West 168 193 1,700 -878 Descending FlightAware
10:59AM 1.5220 110.4390 250° West 154 177 1,500 -607 Descending FlightAware
11:00AM 1.5070 110.4010 248° West 135 155 800 -725 Descending FlightAware
11:01AM 1.4990 110.3830 246° West 137 158 400 -968 Descending FlightAware
11:01AM 1.4970 110.3770 252° West 135 155 300 -462 Descending FlightAware
11:01AM 1.4910 110.3620 248° West 125 144 -720 Descending FlightAware
11:02AM 1.4880 110.3530 252° West 70 81  Level FlightAware

Login

Don't have an account? Register now (free) for customized features, flight alerts, and more!